sensor_id;sensor_type;location;lat;lon;timestamp;temperature;humidity
25436;DHT22;13363;52.772;-3.890;2022-12-13T00:00:52;0.80;99.90
25436;DHT22;13363;52.772;-3.890;2022-12-13T00:03:18;0.70;99.90
25436;DHT22;13363;52.772;-3.890;2022-12-13T00:05:45;0.60;99.90
25436;DHT22;13363;52.772;-3.890;2022-12-13T00:08:10;0.50;99.90
25436;DHT22;13363;52.772;-3.890;2022-12-13T00:10:36;0.40;99.90
25436;DHT22;13363;52.772;-3.890;2022-12-13T00:13:02;0.40;99.90
25436;DHT22;13363;52.772;-3.890;2022-12-13T00:15:29;0.40;99.90
25436;DHT22;13363;52.772;-3.890;2022-12-13T00:17:55;0.40;99.90
25436;DHT22;13363;52.772;-3.890;2022-12-13T00:20:20;0.30;99.90
25436;DHT22;13363;52.772;-3.890;2022-12-13T00:22:46;0.40;99.90
25436;DHT22;13363;52.772;-3.890;2022-12-13T00:25:12;0.30;99.90
25436;DHT22;13363;52.772;-3.890;2022-12-13T00:27:38;0.20;99.90
25436;DHT22;13363;52.772;-3.890;2022-12-13T00:30:04;0.20;99.90
25436;DHT22;13363;52.772;-3.890;2022-12-13T00:32:30;0.10;99.90
25436;DHT22;13363;52.772;-3.890;2022-12-13T00:34:56;0.00;99.90
25436;DHT22;13363;52.772;-3.890;2022-12-13T00:37:21;0.20;99.90
25436;DHT22;13363;52.772;-3.890;2022-12-13T00:39:47;0.20;99.90
25436;DHT22;13363;52.772;-3.890;2022-12-13T00:42:13;0.10;99.90
25436;DHT22;13363;52.772;-3.890;2022-12-13T00:44:39;0.10;99.90
25436;DHT22;13363;52.772;-3.890;2022-12-13T00:47:05;0.10;99.90
25436;DHT22;13363;52.772;-3.890;2022-12-13T00:49:30;0.00;99.90
25436;DHT22;13363;52.772;-3.890;2022-12-13T00:51:56;0.00;99.90
25436;DHT22;13363;52.772;-3.890;2022-12-13T00:54:22;0.00;99.90
25436;DHT22;13363;52.772;-3.890;2022-12-13T00:56:48;0.00;99.90
25436;DHT22;13363;52.772;-3.890;2022-12-13T00:59:15;-0.10;99.90
25436;DHT22;13363;52.772;-3.890;2022-12-13T01:01:41;0.00;99.90
25436;DHT22;13363;52.772;-3.890;2022-12-13T01:04:09;-0.10;99.90
25436;DHT22;13363;52.772;-3.890;2022-12-13T01:06:40;0.00;99.90
25436;DHT22;13363;52.772;-3.890;2022-12-13T01:09:16;-0.10;99.90
25436;DHT22;13363;52.772;-3.890;2022-12-13T01:11:43;-0.20;99.90
25436;DHT22;13363;52.772;-3.890;2022-12-13T01:14:09;-0.30;99.90
25436;DHT22;13363;52.772;-3.890;2022-12-13T01:16:35;-0.40;99.90
25436;DHT22;13363;52.772;-3.890;2022-12-13T01:19:00;-0.50;99.90
25436;DHT22;13363;52.772;-3.890;2022-12-13T01:21:26;-0.40;99.90
25436;DHT22;13363;52.772;-3.890;2022-12-13T01:23:52;-0.40;99.90
25436;DHT22;13363;52.772;-3.890;2022-12-13T01:26:20;-0.20;99.90
25436;DHT22;13363;52.772;-3.890;2022-12-13T01:28:46;-0.20;99.90
25436;DHT22;13363;52.772;-3.890;2022-12-13T01:31:17;-0.10;99.90
25436;DHT22;13363;52.772;-3.890;2022-12-13T01:33:44;-0.30;99.90
25436;DHT22;13363;52.772;-3.890;2022-12-13T01:36:13;-0.40;99.90
25436;DHT22;13363;52.772;-3.890;2022-12-13T01:38:40;-0.40;99.90
25436;DHT22;13363;52.772;-3.890;2022-12-13T01:41:06;-0.40;99.90
25436;DHT22;13363;52.772;-3.890;2022-12-13T01:46:01;-0.60;99.90
25436;DHT22;13363;52.772;-3.890;2022-12-13T01:48:31;-0.70;99.90
25436;DHT22;13363;52.772;-3.890;2022-12-13T01:51:02;-0.70;99.90
25436;DHT22;13363;52.772;-3.890;2022-12-13T01:53:32;-0.70;99.90
25436;DHT22;13363;52.772;-3.890;2022-12-13T01:56:06;-0.50;99.90
25436;DHT22;13363;52.772;-3.890;2022-12-13T01:58:35;-0.60;99.90
25436;DHT22;13363;52.772;-3.890;2022-12-13T02:01:03;-0.70;99.90
25436;DHT22;13363;52.772;-3.890;2022-12-13T02:03:29;-0.70;99.90
25436;DHT22;13363;52.772;-3.890;2022-12-13T02:06:06;-0.70;99.90
25436;DHT22;13363;52.772;-3.890;2022-12-13T02:08:33;-0.50;99.90
25436;DHT22;13363;52.772;-3.890;2022-12-13T02:11:00;-0.50;99.90
25436;DHT22;13363;52.772;-3.890;2022-12-13T02:13:27;-0.60;99.90
25436;DHT22;13363;52.772;-3.890;2022-12-13T02:15:56;-0.70;99.90
25436;DHT22;13363;52.772;-3.890;2022-12-13T02:24:21;-0.60;99.90
25436;DHT22;13363;52.772;-3.890;2022-12-13T02:26:59;-0.70;99.90
25436;DHT22;13363;52.772;-3.890;2022-12-13T02:38:12;-0.80;99.90
25436;DHT22;13363;52.772;-3.890;2022-12-13T02:43:39;-0.90;99.90
25436;DHT22;13363;52.772;-3.890;2022-12-13T02:46:09;-0.90;99.90
25436;DHT22;13363;52.772;-3.890;2022-12-13T02:48:38;-1.00;99.90
25436;DHT22;13363;52.772;-3.890;2022-12-13T02:51:08;-0.90;99.90
25436;DHT22;13363;52.772;-3.890;2022-12-13T02:53:36;-1.00;99.90
25436;DHT22;13363;52.772;-3.890;2022-12-13T02:56:04;-1.10;99.90
25436;DHT22;13363;52.772;-3.890;2022-12-13T02:58:36;-1.10;99.90
25436;DHT22;13363;52.772;-3.890;2022-12-13T03:03:45;-1.20;99.90
25436;DHT22;13363;52.772;-3.890;2022-12-13T03:11:53;-1.30;99.90
25436;DHT22;13363;52.772;-3.890;2022-12-13T03:14:54;-1.40;99.90
25436;DHT22;13363;52.772;-3.890;2022-12-13T03:17:22;-1.40;99.90
25436;DHT22;13363;52.772;-3.890;2022-12-13T03:19:53;-1.30;99.90
25436;DHT22;13363;52.772;-3.890;2022-12-13T03:22:19;-1.30;99.90
25436;DHT22;13363;52.772;-3.890;2022-12-13T03:24:45;-1.30;99.90
25436;DHT22;13363;52.772;-3.890;2022-12-13T03:27:11;-1.30;99.90
25436;DHT22;13363;52.772;-3.890;2022-12-13T03:29:38;-1.40;99.90
25436;DHT22;13363;52.772;-3.890;2022-12-13T03:32:04;-1.30;99.90
25436;DHT22;13363;52.772;-3.890;2022-12-13T03:34:30;-1.40;99.90
25436;DHT22;13363;52.772;-3.890;2022-12-13T03:36:55;-1.40;99.90
25436;DHT22;13363;52.772;-3.890;2022-12-13T03:39:22;-1.20;99.90
25436;DHT22;13363;52.772;-3.890;2022-12-13T03:41:48;-1.30;99.90
25436;DHT22;13363;52.772;-3.890;2022-12-13T03:44:14;-1.50;99.90
25436;DHT22;13363;52.772;-3.890;2022-12-13T03:46:40;-1.50;99.90
25436;DHT22;13363;52.772;-3.890;2022-12-13T03:49:06;-1.60;99.90
25436;DHT22;13363;52.772;-3.890;2022-12-13T03:51:32;-1.50;99.90
25436;DHT22;13363;52.772;-3.890;2022-12-13T03:53:58;-1.50;99.90
25436;DHT22;13363;52.772;-3.890;2022-12-13T03:56:24;-1.50;99.90
25436;DHT22;13363;52.772;-3.890;2022-12-13T03:58:50;-1.50;99.90
25436;DHT22;13363;52.772;-3.890;2022-12-13T04:01:16;-1.60;99.90
25436;DHT22;13363;52.772;-3.890;2022-12-13T04:03:44;-1.50;99.90
25436;DHT22;13363;52.772;-3.890;2022-12-13T04:06:10;-1.40;99.90
25436;DHT22;13363;52.772;-3.890;2022-12-13T04:08:37;-1.50;99.90
25436;DHT22;13363;52.772;-3.890;2022-12-13T04:11:04;-1.60;99.90
25436;DHT22;13363;52.772;-3.890;2022-12-13T04:13:48;-1.60;99.90
25436;DHT22;13363;52.772;-3.890;2022-12-13T04:16:14;-1.70;99.90
25436;DHT22;13363;52.772;-3.890;2022-12-13T04:18:40;-1.80;99.90
25436;DHT22;13363;52.772;-3.890;2022-12-13T04:21:06;-1.80;99.90
25436;DHT22;13363;52.772;-3.890;2022-12-13T04:23:32;-1.80;99.90
25436;DHT22;13363;52.772;-3.890;2022-12-13T04:25:58;-1.70;99.90
25436;DHT22;13363;52.772;-3.890;2022-12-13T04:28:24;-1.70;99.90
25436;DHT22;13363;52.772;-3.890;2022-12-13T04:30:51;-1.70;99.90
25436;DHT22;13363;52.772;-3.890;2022-12-13T04:33:18;-1.70;99.90
25436;DHT22;13363;52.772;-3.890;2022-12-13T04:35:46;-1.80;99.90
25436;DHT22;13363;52.772;-3.890;2022-12-13T04:38:12;-1.80;99.90
25436;DHT22;13363;52.772;-3.890;2022-12-13T04:40:38;-1.80;99.90
25436;DHT22;13363;52.772;-3.890;2022-12-13T04:43:03;-1.90;99.90
25436;DHT22;13363;52.772;-3.890;2022-12-13T04:45:29;-1.80;99.90
25436;DHT22;13363;52.772;-3.890;2022-12-13T04:47:55;-1.80;99.90
25436;DHT22;13363;52.772;-3.890;2022-12-13T04:50:21;-1.90;99.90
25436;DHT22;13363;52.772;-3.890;2022-12-13T04:52:47;-1.90;99.90
25436;DHT22;13363;52.772;-3.890;2022-12-13T04:55:13;-1.90;99.90
25436;DHT22;13363;52.772;-3.890;2022-12-13T04:57:39;-1.90;99.90
25436;DHT22;13363;52.772;-3.890;2022-12-13T05:00:07;-1.90;99.90
25436;DHT22;13363;52.772;-3.890;2022-12-13T05:02:34;-1.90;99.90
25436;DHT22;13363;52.772;-3.890;2022-12-13T05:05:00;-2.00;99.90
25436;DHT22;13363;52.772;-3.890;2022-12-13T05:07:26;-2.00;99.90
25436;DHT22;13363;52.772;-3.890;2022-12-13T05:09:52;-2.10;99.90
25436;DHT22;13363;52.772;-3.890;2022-12-13T05:12:18;-1.90;99.90
25436;DHT22;13363;52.772;-3.890;2022-12-13T05:14:44;-2.00;99.90
25436;DHT22;13363;52.772;-3.890;2022-12-13T05:17:10;-2.00;99.90
25436;DHT22;13363;52.772;-3.890;2022-12-13T05:19:36;-2.00;99.90
25436;DHT22;13363;52.772;-3.890;2022-12-13T05:22:01;-2.00;99.90
25436;DHT22;13363;52.772;-3.890;2022-12-13T05:24:28;-2.00;99.90
25436;DHT22;13363;52.772;-3.890;2022-12-13T05:26:54;-2.00;99.90
25436;DHT22;13363;52.772;-3.890;2022-12-13T05:29:20;-2.00;99.90
25436;DHT22;13363;52.772;-3.890;2022-12-13T05:31:45;-1.90;99.90
25436;DHT22;13363;52.772;-3.890;2022-12-13T05:34:11;-1.90;99.90
25436;DHT22;13363;52.772;-3.890;2022-12-13T05:36:38;-1.90;99.90
25436;DHT22;13363;52.772;-3.890;2022-12-13T05:39:04;-1.90;99.90
25436;DHT22;13363;52.772;-3.890;2022-12-13T05:41:32;-1.90;99.90
25436;DHT22;13363;52.772;-3.890;2022-12-13T05:43:58;-1.90;99.90
25436;DHT22;13363;52.772;-3.890;2022-12-13T05:46:24;-1.80;99.90
25436;DHT22;13363;52.772;-3.890;2022-12-13T05:48:50;-1.80;99.90
25436;DHT22;13363;52.772;-3.890;2022-12-13T05:51:16;-1.90;99.90
25436;DHT22;13363;52.772;-3.890;2022-12-13T05:53:41;-1.90;99.90
25436;DHT22;13363;52.772;-3.890;2022-12-13T05:56:09;-1.90;99.90
25436;DHT22;13363;52.772;-3.890;2022-12-13T05:58:36;-1.80;99.90
25436;DHT22;13363;52.772;-3.890;2022-12-13T06:01:07;-1.80;99.90
25436;DHT22;13363;52.772;-3.890;2022-12-13T06:03:34;-1.90;99.90
25436;DHT22;13363;52.772;-3.890;2022-12-13T06:06:01;-1.90;99.90
25436;DHT22;13363;52.772;-3.890;2022-12-13T06:08:27;-1.90;99.90
25436;DHT22;13363;52.772;-3.890;2022-12-13T06:10:55;-1.90;99.90
25436;DHT22;13363;52.772;-3.890;2022-12-13T06:13:20;-1.90;99.90
25436;DHT22;13363;52.772;-3.890;2022-12-13T06:15:47;-1.90;99.90
25436;DHT22;13363;52.772;-3.890;2022-12-13T06:18:12;-2.00;99.90
25436;DHT22;13363;52.772;-3.890;2022-12-13T06:20:38;-2.00;99.90
25436;DHT22;13363;52.772;-3.890;2022-12-13T06:23:04;-2.00;99.90
25436;DHT22;13363;52.772;-3.890;2022-12-13T06:25:30;-2.00;99.90
25436;DHT22;13363;52.772;-3.890;2022-12-13T06:27:55;-2.00;99.90
25436;DHT22;13363;52.772;-3.890;2022-12-13T06:30:21;-2.00;99.90
25436;DHT22;13363;52.772;-3.890;2022-12-13T06:32:48;-2.00;99.90
25436;DHT22;13363;52.772;-3.890;2022-12-13T06:35:15;-2.00;99.90
25436;DHT22;13363;52.772;-3.890;2022-12-13T06:37:41;-2.00;99.90
25436;DHT22;13363;52.772;-3.890;2022-12-13T06:40:07;-2.00;99.90
25436;DHT22;13363;52.772;-3.890;2022-12-13T06:42:33;-2.00;99.90
25436;DHT22;13363;52.772;-3.890;2022-12-13T06:44:59;-2.00;99.90
25436;DHT22;13363;52.772;-3.890;2022-12-13T06:47:25;-2.00;99.90
25436;DHT22;13363;52.772;-3.890;2022-12-13T06:49:52;-2.00;99.90
25436;DHT22;13363;52.772;-3.890;2022-12-13T06:52:17;-1.90;99.90
25436;DHT22;13363;52.772;-3.890;2022-12-13T06:54:43;-2.00;99.90
25436;DHT22;13363;52.772;-3.890;2022-12-13T06:57:15;-2.00;99.90
25436;DHT22;13363;52.772;-3.890;2022-12-13T06:59:41;-2.00;99.90
25436;DHT22;13363;52.772;-3.890;2022-12-13T07:02:07;-2.00;99.90
25436;DHT22;13363;52.772;-3.890;2022-12-13T07:04:33;-2.00;99.90
25436;DHT22;13363;52.772;-3.890;2022-12-13T07:06:59;-2.00;99.90
25436;DHT22;13363;52.772;-3.890;2022-12-13T07:09:25;-2.00;99.90
25436;DHT22;13363;52.772;-3.890;2022-12-13T07:11:50;-2.00;99.90
25436;DHT22;13363;52.772;-3.890;2022-12-13T07:14:16;-2.00;99.90
25436;DHT22;13363;52.772;-3.890;2022-12-13T07:16:42;-2.00;99.90
25436;DHT22;13363;52.772;-3.890;2022-12-13T07:19:09;-2.00;99.90
25436;DHT22;13363;52.772;-3.890;2022-12-13T07:21:35;-1.90;99.90
25436;DHT22;13363;52.772;-3.890;2022-12-13T07:24:03;-1.90;99.90
25436;DHT22;13363;52.772;-3.890;2022-12-13T07:26:29;-1.90;99.90
25436;DHT22;13363;52.772;-3.890;2022-12-13T07:28:55;-1.90;99.90
25436;DHT22;13363;52.772;-3.890;2022-12-13T07:31:21;-2.00;99.90
25436;DHT22;13363;52.772;-3.890;2022-12-13T07:33:48;-2.00;99.90
25436;DHT22;13363;52.772;-3.890;2022-12-13T07:36:19;-2.10;99.90
25436;DHT22;13363;52.772;-3.890;2022-12-13T07:38:50;-2.10;99.90
25436;DHT22;13363;52.772;-3.890;2022-12-13T07:41:16;-2.10;99.90
25436;DHT22;13363;52.772;-3.890;2022-12-13T07:43:42;-2.10;99.90
25436;DHT22;13363;52.772;-3.890;2022-12-13T07:46:09;-2.10;99.90
25436;DHT22;13363;52.772;-3.890;2022-12-13T07:48:36;-2.00;99.90
25436;DHT22;13363;52.772;-3.890;2022-12-13T07:51:06;-2.00;99.90
25436;DHT22;13363;52.772;-3.890;2022-12-13T07:53:33;-2.10;99.90
25436;DHT22;13363;52.772;-3.890;2022-12-13T07:56:03;-2.10;99.90
25436;DHT22;13363;52.772;-3.890;2022-12-13T07:58:30;-2.10;99.90
25436;DHT22;13363;52.772;-3.890;2022-12-13T08:00:59;-2.00;99.90
25436;DHT22;13363;52.772;-3.890;2022-12-13T08:03:26;-2.00;99.90
25436;DHT22;13363;52.772;-3.890;2022-12-13T08:06:09;-2.00;99.90
25436;DHT22;13363;52.772;-3.890;2022-12-13T08:08:36;-2.00;99.90
25436;DHT22;13363;52.772;-3.890;2022-12-13T08:11:04;-2.10;99.90
25436;DHT22;13363;52.772;-3.890;2022-12-13T08:13:30;-2.10;99.90
25436;DHT22;13363;52.772;-3.890;2022-12-13T08:16:05;-2.10;99.90
25436;DHT22;13363;52.772;-3.890;2022-12-13T08:18:32;-2.10;99.90
25436;DHT22;13363;52.772;-3.890;2022-12-13T08:21:03;-2.10;99.90
25436;DHT22;13363;52.772;-3.890;2022-12-13T08:23:30;-1.90;99.90
25436;DHT22;13363;52.772;-3.890;2022-12-13T08:25:57;-1.90;99.90
25436;DHT22;13363;52.772;-3.890;2022-12-13T08:28:24;-1.90;99.90
25436;DHT22;13363;52.772;-3.890;2022-12-13T08:30:51;-1.80;99.90
25436;DHT22;13363;52.772;-3.890;2022-12-13T08:33:17;-1.90;99.90
25436;DHT22;13363;52.772;-3.890;2022-12-13T08:35:44;-1.80;99.90
25436;DHT22;13363;52.772;-3.890;2022-12-13T08:38:10;-1.80;99.90
25436;DHT22;13363;52.772;-3.890;2022-12-13T08:40:36;-1.90;99.90
25436;DHT22;13363;52.772;-3.890;2022-12-13T08:43:02;-1.90;99.90
25436;DHT22;13363;52.772;-3.890;2022-12-13T08:45:29;-2.00;99.90
25436;DHT22;13363;52.772;-3.890;2022-12-13T08:47:59;-1.90;99.90
25436;DHT22;13363;52.772;-3.890;2022-12-13T08:50:25;-1.90;99.90
25436;DHT22;13363;52.772;-3.890;2022-12-13T08:52:51;-1.90;99.90
25436;DHT22;13363;52.772;-3.890;2022-12-13T08:55:17;-1.80;99.90
25436;DHT22;13363;52.772;-3.890;2022-12-13T08:57:44;-1.70;99.90
25436;DHT22;13363;52.772;-3.890;2022-12-13T09:00:12;-1.70;99.90
25436;DHT22;13363;52.772;-3.890;2022-12-13T09:02:39;-1.70;99.90
25436;DHT22;13363;52.772;-3.890;2022-12-13T09:05:06;-1.50;99.90
25436;DHT22;13363;52.772;-3.890;2022-12-13T09:07:32;-1.50;99.90
25436;DHT22;13363;52.772;-3.890;2022-12-13T09:10:00;-1.50;99.90
25436;DHT22;13363;52.772;-3.890;2022-12-13T09:12:26;-1.40;99.90
25436;DHT22;13363;52.772;-3.890;2022-12-13T09:14:52;-1.30;99.90
25436;DHT22;13363;52.772;-3.890;2022-12-13T09:17:18;-1.20;99.90
25436;DHT22;13363;52.772;-3.890;2022-12-13T09:19:43;-1.20;99.90
25436;DHT22;13363;52.772;-3.890;2022-12-13T09:22:10;-1.00;99.90
25436;DHT22;13363;52.772;-3.890;2022-12-13T09:24:36;-1.00;99.90
25436;DHT22;13363;52.772;-3.890;2022-12-13T09:27:03;-1.00;99.90
25436;DHT22;13363;52.772;-3.890;2022-12-13T09:29:29;-0.90;99.90
25436;DHT22;13363;52.772;-3.890;2022-12-13T09:31:54;-1.00;99.90
25436;DHT22;13363;52.772;-3.890;2022-12-13T09:34:20;-1.00;99.90
25436;DHT22;13363;52.772;-3.890;2022-12-13T09:36:46;-1.00;99.90
25436;DHT22;13363;52.772;-3.890;2022-12-13T09:39:12;-1.00;99.90
25436;DHT22;13363;52.772;-3.890;2022-12-13T09:41:49;-0.90;99.90
25436;DHT22;13363;52.772;-3.890;2022-12-13T09:44:33;-0.80;99.90
25436;DHT22;13363;52.772;-3.890;2022-12-13T09:47:02;-0.70;99.90
25436;DHT22;13363;52.772;-3.890;2022-12-13T09:49:34;-0.60;99.90
25436;DHT22;13363;52.772;-3.890;2022-12-13T09:52:03;-0.50;99.90
25436;DHT22;13363;52.772;-3.890;2022-12-13T09:54:30;-0.40;99.90
25436;DHT22;13363;52.772;-3.890;2022-12-13T09:56:57;-0.40;99.90
25436;DHT22;13363;52.772;-3.890;2022-12-13T09:59:30;-0.20;99.90
25436;DHT22;13363;52.772;-3.890;2022-12-13T10:02:06;-0.20;99.90
25436;DHT22;13363;52.772;-3.890;2022-12-13T10:04:38;-0.10;99.90
25436;DHT22;13363;52.772;-3.890;2022-12-13T10:07:12;0.00;99.90
25436;DHT22;13363;52.772;-3.890;2022-12-13T10:09:42;0.00;99.90
25436;DHT22;13363;52.772;-3.890;2022-12-13T10:12:11;0.10;99.90
25436;DHT22;13363;52.772;-3.890;2022-12-13T10:14:42;0.20;99.90
25436;DHT22;13363;52.772;-3.890;2022-12-13T10:17:14;0.40;99.90
25436;DHT22;13363;52.772;-3.890;2022-12-13T10:19:46;0.40;99.90
25436;DHT22;13363;52.772;-3.890;2022-12-13T10:22:19;0.40;99.90
25436;DHT22;13363;52.772;-3.890;2022-12-13T10:25:00;0.40;99.90
25436;DHT22;13363;52.772;-3.890;2022-12-13T10:27:43;0.30;99.90
25436;DHT22;13363;52.772;-3.890;2022-12-13T10:30:17;0.30;99.90
25436;DHT22;13363;52.772;-3.890;2022-12-13T10:33:00;0.40;99.90
25436;DHT22;13363;52.772;-3.890;2022-12-13T10:37:54;0.40;99.90
25436;DHT22;13363;52.772;-3.890;2022-12-13T10:40:32;0.40;99.90
25436;DHT22;13363;52.772;-3.890;2022-12-13T10:43:25;0.30;99.90
25436;DHT22;13363;52.772;-3.890;2022-12-13T10:45:59;0.30;99.90
25436;DHT22;13363;52.772;-3.890;2022-12-13T10:48:48;0.40;99.90
25436;DHT22;13363;52.772;-3.890;2022-12-13T10:51:19;0.60;99.90
25436;DHT22;13363;52.772;-3.890;2022-12-13T10:53:57;0.60;99.90
25436;DHT22;13363;52.772;-3.890;2022-12-13T10:56:48;0.60;99.90
25436;DHT22;13363;52.772;-3.890;2022-12-13T10:59:32;0.60;99.90
25436;DHT22;13363;52.772;-3.890;2022-12-13T11:02:00;0.50;99.90
25436;DHT22;13363;52.772;-3.890;2022-12-13T11:04:33;0.60;99.90
25436;DHT22;13363;52.772;-3.890;2022-12-13T11:07:18;0.70;99.90
25436;DHT22;13363;52.772;-3.890;2022-12-13T11:09:46;0.80;99.90
25436;DHT22;13363;52.772;-3.890;2022-12-13T11:12:21;0.80;99.90
25436;DHT22;13363;52.772;-3.890;2022-12-13T11:17:22;0.80;99.90
25436;DHT22;13363;52.772;-3.890;2022-12-13T11:19:54;0.90;99.90
25436;DHT22;13363;52.772;-3.890;2022-12-13T11:22:29;0.90;99.90
25436;DHT22;13363;52.772;-3.890;2022-12-13T11:25:22;1.00;99.90
25436;DHT22;13363;52.772;-3.890;2022-12-13T11:33:35;1.10;99.90
25436;DHT22;13363;52.772;-3.890;2022-12-13T11:36:30;1.10;99.90
25436;DHT22;13363;52.772;-3.890;2022-12-13T11:39:09;1.10;99.90
25436;DHT22;13363;52.772;-3.890;2022-12-13T11:41:43;1.40;99.90
25436;DHT22;13363;52.772;-3.890;2022-12-13T11:47:14;1.10;99.90
25436;DHT22;13363;52.772;-3.890;2022-12-13T11:49:44;1.20;99.90
25436;DHT22;13363;52.772;-3.890;2022-12-13T11:52:24;1.40;99.90
25436;DHT22;13363;52.772;-3.890;2022-12-13T11:55:20;1.40;99.90
25436;DHT22;13363;52.772;-3.890;2022-12-13T11:58:06;1.70;99.90
25436;DHT22;13363;52.772;-3.890;2022-12-13T12:00:52;1.70;99.90
25436;DHT22;13363;52.772;-3.890;2022-12-13T12:03:47;1.70;99.90
25436;DHT22;13363;52.772;-3.890;2022-12-13T12:06:41;1.70;99.90
25436;DHT22;13363;52.772;-3.890;2022-12-13T12:09:15;1.70;99.90
25436;DHT22;13363;52.772;-3.890;2022-12-13T12:17:14;1.90;99.90
25436;DHT22;13363;52.772;-3.890;2022-12-13T12:19:46;1.90;99.90
25436;DHT22;13363;52.772;-3.890;2022-12-13T12:22:38;2.00;99.90
25436;DHT22;13363;52.772;-3.890;2022-12-13T12:31:21;2.10;99.90
25436;DHT22;13363;52.772;-3.890;2022-12-13T12:34:17;2.20;99.90
25436;DHT22;13363;52.772;-3.890;2022-12-13T12:42:43;2.20;99.90
25436;DHT22;13363;52.772;-3.890;2022-12-13T12:51:03;2.50;99.90
25436;DHT22;13363;52.772;-3.890;2022-12-13T13:01:40;2.70;99.90
25436;DHT22;13363;52.772;-3.890;2022-12-13T13:04:11;2.70;99.90
25436;DHT22;13363;52.772;-3.890;2022-12-13T13:06:44;2.90;99.90
25436;DHT22;13363;52.772;-3.890;2022-12-13T13:09:13;3.10;99.90
25436;DHT22;13363;52.772;-3.890;2022-12-13T13:11:44;3.20;99.90
25436;DHT22;13363;52.772;-3.890;2022-12-13T13:16:52;3.20;99.90
25436;DHT22;13363;52.772;-3.890;2022-12-13T13:21:54;3.40;99.90
25436;DHT22;13363;52.772;-3.890;2022-12-13T13:24:21;3.30;99.90
25436;DHT22;13363;52.772;-3.890;2022-12-13T13:27:19;3.20;99.90
25436;DHT22;13363;52.772;-3.890;2022-12-13T13:29:44;3.30;99.90
25436;DHT22;13363;52.772;-3.890;2022-12-13T13:34:37;3.30;99.90
25436;DHT22;13363;52.772;-3.890;2022-12-13T13:43:11;3.10;99.90
25436;DHT22;13363;52.772;-3.890;2022-12-13T13:48:55;2.90;99.90
25436;DHT22;13363;52.772;-3.890;2022-12-13T13:54:51;3.00;99.90
25436;DHT22;13363;52.772;-3.890;2022-12-13T14:10:33;2.90;99.90
25436;DHT22;13363;52.772;-3.890;2022-12-13T14:16:18;2.90;99.90
25436;DHT22;13363;52.772;-3.890;2022-12-13T14:29:02;2.60;99.90
25436;DHT22;13363;52.772;-3.890;2022-12-13T14:31:49;2.60;99.90
25436;DHT22;13363;52.772;-3.890;2022-12-13T14:34:31;2.50;99.90
25436;DHT22;13363;52.772;-3.890;2022-12-13T14:37:00;2.50;99.90
25436;DHT22;13363;52.772;-3.890;2022-12-13T14:39:27;2.60;99.90
25436;DHT22;13363;52.772;-3.890;2022-12-13T14:41:58;2.60;99.90
25436;DHT22;13363;52.772;-3.890;2022-12-13T14:44:33;2.50;99.90
25436;DHT22;13363;52.772;-3.890;2022-12-13T14:47:05;2.40;99.90
25436;DHT22;13363;52.772;-3.890;2022-12-13T14:49:38;2.30;99.90
25436;DHT22;13363;52.772;-3.890;2022-12-13T14:52:15;2.30;99.90
25436;DHT22;13363;52.772;-3.890;2022-12-13T14:54:55;2.30;99.90
25436;DHT22;13363;52.772;-3.890;2022-12-13T14:57:23;2.20;99.90
25436;DHT22;13363;52.772;-3.890;2022-12-13T14:59:53;2.20;99.90
25436;DHT22;13363;52.772;-3.890;2022-12-13T15:02:28;2.20;99.90
25436;DHT22;13363;52.772;-3.890;2022-12-13T15:04:59;2.20;99.90
25436;DHT22;13363;52.772;-3.890;2022-12-13T15:07:32;2.20;99.90
25436;DHT22;13363;52.772;-3.890;2022-12-13T15:10:27;2.00;99.90
25436;DHT22;13363;52.772;-3.890;2022-12-13T15:12:56;1.90;99.90
25436;DHT22;13363;52.772;-3.890;2022-12-13T15:15:34;1.80;99.90
25436;DHT22;13363;52.772;-3.890;2022-12-13T15:20:40;1.60;99.90
25436;DHT22;13363;52.772;-3.890;2022-12-13T15:25:51;1.40;99.90
25436;DHT22;13363;52.772;-3.890;2022-12-13T15:28:20;1.40;99.90
25436;DHT22;13363;52.772;-3.890;2022-12-13T15:30:46;1.30;99.90
25436;DHT22;13363;52.772;-3.890;2022-12-13T15:33:18;1.20;99.90
25436;DHT22;13363;52.772;-3.890;2022-12-13T15:35:59;1.10;99.90
25436;DHT22;13363;52.772;-3.890;2022-12-13T15:38:26;1.20;99.90
25436;DHT22;13363;52.772;-3.890;2022-12-13T15:40:52;1.10;99.90
25436;DHT22;13363;52.772;-3.890;2022-12-13T15:43:21;1.00;99.90
25436;DHT22;13363;52.772;-3.890;2022-12-13T15:45:49;0.90;99.90
25436;DHT22;13363;52.772;-3.890;2022-12-13T15:50:45;0.80;99.90
25436;DHT22;13363;52.772;-3.890;2022-12-13T15:53:25;0.80;99.90
25436;DHT22;13363;52.772;-3.890;2022-12-13T15:55:51;0.80;99.90
25436;DHT22;13363;52.772;-3.890;2022-12-13T15:58:28;0.80;99.90
25436;DHT22;13363;52.772;-3.890;2022-12-13T16:00:56;0.80;99.90
25436;DHT22;13363;52.772;-3.890;2022-12-13T16:03:24;0.80;99.90
25436;DHT22;13363;52.772;-3.890;2022-12-13T16:05:53;0.80;99.90
25436;DHT22;13363;52.772;-3.890;2022-12-13T16:08:29;0.70;99.90
25436;DHT22;13363;52.772;-3.890;2022-12-13T16:10:56;0.70;99.90
25436;DHT22;13363;52.772;-3.890;2022-12-13T16:13:31;0.70;99.90
25436;DHT22;13363;52.772;-3.890;2022-12-13T16:15:59;0.70;99.90
25436;DHT22;13363;52.772;-3.890;2022-12-13T16:18:30;0.80;99.90
25436;DHT22;13363;52.772;-3.890;2022-12-13T16:20:57;0.80;99.90
25436;DHT22;13363;52.772;-3.890;2022-12-13T16:23:24;0.90;99.90
25436;DHT22;13363;52.772;-3.890;2022-12-13T16:25:50;1.00;99.90
25436;DHT22;13363;52.772;-3.890;2022-12-13T16:28:17;0.90;99.90
25436;DHT22;13363;52.772;-3.890;2022-12-13T16:33:19;0.70;99.90
25436;DHT22;13363;52.772;-3.890;2022-12-13T16:35:45;0.60;99.90
25436;DHT22;13363;52.772;-3.890;2022-12-13T16:38:12;0.50;99.90
25436;DHT22;13363;52.772;-3.890;2022-12-13T16:40:39;0.50;99.90
25436;DHT22;13363;52.772;-3.890;2022-12-13T16:43:07;0.50;99.90
25436;DHT22;13363;52.772;-3.890;2022-12-13T16:45:41;0.40;99.90
25436;DHT22;13363;52.772;-3.890;2022-12-13T16:48:23;0.30;99.90
25436;DHT22;13363;52.772;-3.890;2022-12-13T16:50:50;0.30;99.90
25436;DHT22;13363;52.772;-3.890;2022-12-13T16:53:16;0.20;99.90
25436;DHT22;13363;52.772;-3.890;2022-12-13T16:55:43;0.10;99.90
25436;DHT22;13363;52.772;-3.890;2022-12-13T16:58:12;0.10;99.90
25436;DHT22;13363;52.772;-3.890;2022-12-13T17:00:38;0.10;99.90
25436;DHT22;13363;52.772;-3.890;2022-12-13T17:03:05;0.20;99.90
25436;DHT22;13363;52.772;-3.890;2022-12-13T17:05:32;0.20;99.90
25436;DHT22;13363;52.772;-3.890;2022-12-13T17:07:59;0.10;99.90
25436;DHT22;13363;52.772;-3.890;2022-12-13T17:10:25;0.10;99.90
25436;DHT22;13363;52.772;-3.890;2022-12-13T17:12:52;0.10;99.90
25436;DHT22;13363;52.772;-3.890;2022-12-13T17:15:18;0.10;99.90
25436;DHT22;13363;52.772;-3.890;2022-12-13T17:17:44;0.20;99.90
25436;DHT22;13363;52.772;-3.890;2022-12-13T17:20:12;0.10;99.90
25436;DHT22;13363;52.772;-3.890;2022-12-13T17:22:45;0.00;99.90
25436;DHT22;13363;52.772;-3.890;2022-12-13T17:25:12;-0.10;99.90
25436;DHT22;13363;52.772;-3.890;2022-12-13T17:27:39;0.00;99.90
25436;DHT22;13363;52.772;-3.890;2022-12-13T17:30:06;-0.10;99.90
25436;DHT22;13363;52.772;-3.890;2022-12-13T17:32:33;0.00;99.90
25436;DHT22;13363;52.772;-3.890;2022-12-13T17:34:59;-0.10;99.90
25436;DHT22;13363;52.772;-3.890;2022-12-13T17:37:25;-0.10;99.90
25436;DHT22;13363;52.772;-3.890;2022-12-13T17:39:51;0.00;99.90
25436;DHT22;13363;52.772;-3.890;2022-12-13T17:42:17;-0.10;99.90
25436;DHT22;13363;52.772;-3.890;2022-12-13T17:44:43;-0.10;99.90
25436;DHT22;13363;52.772;-3.890;2022-12-13T17:47:09;-0.30;99.90